createdAt,value
2019-03-18T00:02:17.217Z,74.00
2019-03-18T00:05:05.524Z,74.00
2019-03-18T00:07:35.131Z,74.40
2019-03-18T00:10:05.998Z,74.30
2019-03-18T00:12:35.660Z,73.80
2019-03-18T00:15:05.721Z,74.10
2019-03-18T00:17:36.660Z,73.20
2019-03-18T00:20:09.115Z,73.50
2019-03-18T00:22:38.710Z,73.90
2019-03-18T00:25:08.366Z,74.40
2019-03-18T00:27:39.361Z,74.50
2019-03-18T00:30:39.910Z,74.50
2019-03-18T00:33:19.463Z,74.80
2019-03-18T00:35:51.399Z,75.10
2019-03-18T00:38:51.227Z,75.10
2019-03-18T00:41:55.535Z,75.70
2019-03-18T00:44:58.088Z,76.50
2019-03-18T00:47:28.633Z,76.60
2019-03-18T00:49:59.468Z,76.40
2019-03-18T00:52:30.523Z,76.20
2019-03-18T00:55:00.113Z,76.30
2019-03-18T00:57:31.280Z,76.30
2019-03-18T01:00:01.215Z,77.00
2019-03-18T01:02:30.765Z,77.00
2019-03-18T01:05:00.593Z,77.10
2019-03-18T01:07:30.100Z,77.10
2019-03-18T01:09:59.757Z,76.80
2019-03-18T01:12:29.297Z,76.40
2019-03-18T01:14:58.791Z,75.80
2019-03-18T01:17:28.417Z,75.80
2019-03-18T01:19:57.961Z,76.10
2019-03-18T01:22:27.643Z,76.80
2019-03-18T01:24:57.675Z,76.50
2019-03-18T01:27:27.156Z,76.00
2019-03-18T01:29:56.630Z,76.10
2019-03-18T01:32:26.134Z,76.30
2019-03-18T01:34:56.850Z,76.20
2019-03-18T01:37:26.404Z,76.20
2019-03-18T01:39:55.922Z,76.10
2019-03-18T01:42:25.552Z,75.90
2019-03-18T01:44:54.975Z,76.70
2019-03-18T01:47:24.469Z,75.60
2019-03-18T01:49:53.932Z,75.70
2019-03-18T01:52:23.471Z,76.00
2019-03-18T01:54:53.007Z,76.30
2019-03-18T01:57:22.495Z,76.10
2019-03-18T01:59:52.062Z,76.40
2019-03-18T02:02:21.606Z,76.30
2019-03-18T02:04:52.545Z,76.40
2019-03-18T02:07:23.078Z,76.50
2019-03-18T02:09:52.858Z,76.90
2019-03-18T02:12:22.337Z,77.20
2019-03-18T02:14:51.937Z,77.70
2019-03-18T02:17:21.464Z,77.50
2019-03-18T02:19:51.087Z,77.00
2019-03-18T02:22:20.762Z,76.60
2019-03-18T02:24:50.238Z,76.50
2019-03-18T02:27:19.772Z,76.70
2019-03-18T02:29:49.313Z,76.60
2019-03-18T02:32:18.846Z,76.70
2019-03-18T02:34:48.477Z,76.80
2019-03-18T02:37:18.507Z,76.60
2019-03-18T02:39:47.967Z,75.10
2019-03-18T02:42:18.157Z,73.50
2019-03-18T02:44:47.646Z,72.50
2019-03-18T02:47:18.240Z,72.20
2019-03-18T02:49:47.755Z,73.50
2019-03-18T02:52:18.576Z,73.60
2019-03-18T02:54:48.077Z,74.00
2019-03-18T02:57:17.605Z,74.30
2019-03-18T02:59:48.234Z,74.40
2019-03-18T03:02:17.750Z,75.10
2019-03-18T03:04:49.912Z,75.10
2019-03-18T03:07:19.472Z,75.50
2019-03-18T03:09:48.980Z,75.90
2019-03-18T03:12:18.474Z,76.00
2019-03-18T03:14:48.197Z,76.30
2019-03-18T03:17:21.445Z,76.50
2019-03-18T03:19:48.927Z,76.80
2019-03-18T03:22:18.394Z,76.70
2019-03-18T03:24:47.939Z,75.90
2019-03-18T03:27:17.479Z,75.70
2019-03-18T03:29:47.051Z,75.40
2019-03-18T03:32:16.630Z,75.10
2019-03-18T03:34:46.129Z,75.30
2019-03-18T03:37:15.612Z,75.90
2019-03-18T03:39:45.300Z,76.00
2019-03-18T03:42:15.717Z,76.20
2019-03-18T03:44:45.211Z,76.10
2019-03-18T03:47:15.785Z,76.20
2019-03-18T03:49:45.325Z,76.30
2019-03-18T03:52:15.038Z,76.70
2019-03-18T03:54:44.549Z,77.30
2019-03-18T03:57:14.088Z,77.40
2019-03-18T03:59:43.614Z,77.50
2019-03-18T04:02:13.201Z,77.00
2019-03-18T04:04:42.725Z,76.30
2019-03-18T04:07:12.188Z,76.60
2019-03-18T04:09:41.826Z,77.00
2019-03-18T04:12:11.362Z,77.10
2019-03-18T04:14:40.916Z,77.60
2019-03-18T04:17:11.794Z,76.50
2019-03-18T04:19:42.711Z,76.20
2019-03-18T04:22:12.286Z,75.90
2019-03-18T04:24:41.759Z,76.00
2019-03-18T04:27:11.271Z,76.30
2019-03-18T04:29:40.769Z,76.20
2019-03-18T04:32:10.232Z,76.20
2019-03-18T04:34:39.772Z,76.20
2019-03-18T04:37:09.293Z,76.20
2019-03-18T04:39:43.126Z,75.90
2019-03-18T04:42:12.656Z,75.80
2019-03-18T04:44:42.088Z,75.70
2019-03-18T04:47:14.570Z,75.50
2019-03-18T04:49:43.006Z,74.60
2019-03-18T04:52:12.441Z,75.40
2019-03-18T04:54:41.867Z,75.50
2019-03-18T04:57:11.375Z,74.80
2019-03-18T04:59:41.773Z,75.30
2019-03-18T05:02:11.218Z,76.10
2019-03-18T05:04:40.696Z,76.40
2019-03-18T05:07:10.263Z,76.20
2019-03-18T05:09:40.000Z,76.60
2019-03-18T05:12:09.578Z,76.30
2019-03-18T05:14:39.160Z,76.20
2019-03-18T05:17:08.779Z,75.90
2019-03-18T05:19:38.628Z,74.30
2019-03-18T05:22:08.604Z,73.30
2019-03-18T05:24:42.196Z,71.90
2019-03-18T05:27:38.236Z,71.40
2019-03-18T05:30:09.903Z,71.00
2019-03-18T05:32:39.465Z,70.40
2019-03-18T05:35:09.228Z,70.20
2019-03-18T05:37:54.062Z,69.40
2019-03-18T05:40:26.409Z,70.20
2019-03-18T05:43:16.511Z,69.90
2019-03-18T05:45:46.524Z,69.90
2019-03-18T05:48:16.100Z,70.50
2019-03-18T05:50:47.074Z,71.50
2019-03-18T05:53:23.642Z,72.40
2019-03-18T05:55:53.562Z,71.30
2019-03-18T05:58:24.354Z,71.00
2019-03-18T06:00:54.072Z,70.70
2019-03-18T06:03:24.723Z,70.70
2019-03-18T06:05:54.472Z,70.80
2019-03-18T06:08:25.576Z,70.90
2019-03-18T06:10:55.084Z,70.80
2019-03-18T06:13:25.358Z,71.00
2019-03-18T06:15:57.041Z,70.80
2019-03-18T06:18:32.663Z,70.70
2019-03-18T06:21:02.311Z,70.90
2019-03-18T06:23:31.946Z,71.70
2019-03-18T06:26:01.635Z,72.80
2019-03-18T06:28:33.015Z,72.90
2019-03-18T06:31:05.008Z,72.40
2019-03-18T06:33:35.025Z,72.40
2019-03-18T06:36:05.097Z,72.80
2019-03-18T06:38:36.074Z,73.70
2019-03-18T06:41:05.689Z,74.70
2019-03-18T06:43:36.195Z,76.10
2019-03-18T06:46:05.824Z,76.30
2019-03-18T06:48:35.333Z,76.20
2019-03-18T06:51:04.847Z,76.10
2019-03-18T06:53:34.447Z,76.80
2019-03-18T06:56:03.973Z,76.50
2019-03-18T06:58:33.453Z,76.00
2019-03-18T07:01:04.286Z,76.10
2019-03-18T07:03:33.955Z,75.50
2019-03-18T07:06:03.482Z,74.80
2019-03-18T07:08:33.183Z,74.40
2019-03-18T07:11:02.847Z,74.30
2019-03-18T07:13:32.867Z,73.60
2019-03-18T07:16:03.617Z,73.80
2019-03-18T07:18:33.601Z,77.80
2019-03-18T07:21:10.124Z,78.30
2019-03-18T07:23:40.307Z,76.10
2019-03-18T07:26:13.901Z,74.90
2019-03-18T07:28:44.688Z,71.30
2019-03-18T07:31:14.103Z,68.40
2019-03-18T07:33:43.717Z,67.60
2019-03-18T07:36:13.196Z,63.10
2019-03-18T07:38:42.789Z,63.90
2019-03-18T07:41:12.384Z,61.00
2019-03-18T07:43:41.853Z,57.70
2019-03-18T07:46:11.306Z,59.00
2019-03-18T07:48:40.976Z,59.80
2019-03-18T07:51:10.579Z,54.90
2019-03-18T07:53:40.027Z,55.90
2019-03-18T07:56:09.824Z,57.30
2019-03-18T07:58:39.319Z,56.50
2019-03-18T08:01:08.880Z,57.60
2019-03-18T08:03:38.464Z,53.20
2019-03-18T08:06:08.018Z,51.80
2019-03-18T08:08:37.823Z,53.80
2019-03-18T08:11:07.487Z,54.50
2019-03-18T08:13:37.583Z,55.40
2019-03-18T08:16:07.277Z,57.30
2019-03-18T08:18:43.309Z,56.90
2019-03-18T08:21:09.631Z,57.60
2019-03-18T08:23:40.633Z,57.80
2019-03-18T08:26:10.246Z,55.90
2019-03-18T08:28:39.883Z,56.90
2019-03-18T08:31:09.413Z,57.60
2019-03-18T08:33:38.918Z,59.00
2019-03-18T08:36:08.475Z,59.40
2019-03-18T08:38:38.028Z,60.00
2019-03-18T08:41:07.514Z,61.10
2019-03-18T08:43:37.013Z,61.20
2019-03-18T08:46:06.935Z,59.80
2019-03-18T08:48:37.341Z,60.00
2019-03-18T08:51:07.876Z,60.60
2019-03-18T08:53:54.408Z,59.50
2019-03-18T08:56:25.945Z,59.80
2019-03-18T08:58:55.541Z,61.40
2019-03-18T09:01:25.280Z,63.10
2019-03-18T09:03:56.854Z,61.70
2019-03-18T09:06:30.234Z,60.40
2019-03-18T09:08:58.886Z,65.80
2019-03-18T09:14:11.409Z,57.30
2019-03-18T09:16:41.161Z,57.00
2019-03-18T09:19:11.077Z,55.90
2019-03-18T09:27:02.433Z,61.00
2019-03-18T09:29:31.812Z,56.50
2019-03-18T09:32:01.805Z,56.20
2019-03-18T09:34:33.660Z,53.90
2019-03-18T09:37:05.884Z,52.80
2019-03-18T09:39:35.601Z,53.70
2019-03-18T09:42:08.627Z,57.30
2019-03-18T09:44:38.133Z,50.20
2019-03-18T09:47:08.708Z,48.10
2019-03-18T09:49:38.313Z,46.10
2019-03-18T09:52:10.812Z,46.10
2019-03-18T09:54:40.620Z,50.40
2019-03-18T09:57:10.207Z,46.90
2019-03-18T09:59:39.780Z,49.40
2019-03-18T10:02:09.180Z,48.10
2019-03-18T10:04:38.606Z,42.30
2019-03-18T10:07:08.190Z,44.60
2019-03-18T10:09:37.835Z,46.70
2019-03-18T10:12:07.526Z,46.40
2019-03-18T10:14:37.274Z,46.50
2019-03-18T10:17:09.915Z,46.90
2019-03-18T10:19:39.589Z,46.70
2019-03-18T10:22:09.131Z,47.70
2019-03-18T10:24:38.818Z,47.50
2019-03-18T10:27:08.433Z,51.30
2019-03-18T10:29:38.148Z,48.40
2019-03-18T10:32:07.849Z,45.40
2019-03-18T10:34:37.644Z,45.90
2019-03-18T10:37:08.426Z,47.40
2019-03-18T10:39:39.302Z,43.40
2019-03-18T10:42:09.774Z,42.10
2019-03-18T10:44:39.399Z,43.50
2019-03-18T10:47:08.992Z,39.70
2019-03-18T10:49:46.114Z,40.40
2019-03-18T10:52:12.631Z,39.50
2019-03-18T10:54:42.278Z,40.60
2019-03-18T10:57:11.844Z,43.20
2019-03-18T10:59:42.305Z,39.50
2019-03-18T11:02:13.104Z,40.80
2019-03-18T11:04:43.667Z,42.30
2019-03-18T11:07:19.727Z,44.80
2019-03-18T11:09:49.329Z,40.20
2019-03-18T11:12:26.329Z,43.90
2019-03-18T11:14:55.965Z,40.40
2019-03-18T11:17:25.671Z,41.60
2019-03-18T11:19:58.839Z,35.30
2019-03-18T11:22:28.340Z,34.00
2019-03-18T11:24:58.408Z,32.80
2019-03-18T11:27:27.904Z,32.40
2019-03-18T11:29:57.552Z,34.80
2019-03-18T11:32:27.656Z,37.90
2019-03-18T11:34:57.279Z,37.70
2019-03-18T11:37:27.513Z,28.60
2019-03-18T11:39:57.143Z,31.00
2019-03-18T11:42:26.792Z,32.90
2019-03-18T11:44:56.248Z,34.80
2019-03-18T11:47:26.213Z,37.40
2019-03-18T11:49:55.797Z,39.10
2019-03-18T11:52:26.652Z,41.30
2019-03-18T11:54:59.681Z,42.90
2019-03-18T11:57:29.273Z,44.00
2019-03-18T11:59:59.130Z,45.80
2019-03-18T12:02:28.665Z,49.90
2019-03-18T12:04:58.229Z,44.90
2019-03-18T12:07:29.516Z,43.00
2019-03-18T12:09:59.165Z,42.10
2019-03-18T12:12:28.994Z,41.90
2019-03-18T12:14:58.851Z,41.30
2019-03-18T12:17:28.871Z,41.70
2019-03-18T12:19:58.505Z,41.50
2019-03-18T12:22:29.993Z,43.20
2019-03-18T12:27:36.512Z,45.40
2019-03-18T12:30:09.084Z,45.60
2019-03-18T12:32:38.749Z,47.40
2019-03-18T12:35:08.420Z,41.10
2019-03-18T12:37:37.977Z,37.80
2019-03-18T12:40:09.096Z,42.90
2019-03-18T12:42:38.580Z,44.10
2019-03-18T12:45:09.303Z,40.70
2019-03-18T12:47:38.963Z,36.90
2019-03-18T12:50:11.612Z,31.60
2019-03-18T12:52:41.061Z,33.30
2019-03-18T12:55:10.746Z,37.80
2019-03-18T12:57:40.308Z,38.50
2019-03-18T13:00:14.532Z,41.20
2019-03-18T13:02:44.668Z,42.30
2019-03-18T13:05:14.714Z,43.20
2019-03-18T13:07:44.725Z,43.80
2019-03-18T13:10:15.759Z,45.00
2019-03-18T13:12:45.372Z,45.20
2019-03-18T13:15:25.539Z,46.60
2019-03-18T13:17:55.580Z,46.50
2019-03-18T13:23:43.077Z,45.10
2019-03-18T13:26:20.117Z,43.10
2019-03-18T13:28:49.821Z,42.50
2019-03-18T13:31:19.830Z,41.40
2019-03-18T13:33:49.683Z,41.70
2019-03-18T13:36:19.389Z,42.00
2019-03-18T13:38:49.027Z,41.50
2019-03-18T13:41:18.543Z,39.90
2019-03-18T13:43:48.350Z,36.60
2019-03-18T13:46:20.024Z,39.10
2019-03-18T13:48:50.851Z,43.80
2019-03-18T13:51:21.434Z,40.50
2019-03-18T13:53:53.213Z,40.20
2019-03-18T13:56:24.643Z,38.90
2019-03-18T13:58:54.324Z,40.50
2019-03-18T14:01:23.871Z,43.30
2019-03-18T14:03:54.585Z,42.30
2019-03-18T14:06:24.269Z,40.30
2019-03-18T14:08:57.513Z,39.30
2019-03-18T14:11:27.639Z,36.60
2019-03-18T14:13:57.410Z,36.70
2019-03-18T14:16:27.163Z,40.00
2019-03-18T14:18:56.698Z,39.10
2019-03-18T14:21:33.133Z,40.20
2019-03-18T14:23:58.851Z,37.60
2019-03-18T14:26:28.353Z,35.80
2019-03-18T14:28:57.857Z,39.10
2019-03-18T14:31:27.413Z,36.70
2019-03-18T14:33:57.067Z,37.00
2019-03-18T14:36:27.005Z,38.80
2019-03-18T14:38:57.958Z,39.00
2019-03-18T14:41:29.781Z,41.10
2019-03-18T14:44:00.826Z,40.80
2019-03-18T14:46:30.468Z,35.60
2019-03-18T14:49:00.572Z,35.60
2019-03-18T14:51:30.204Z,35.30
2019-03-18T14:53:59.778Z,35.00
2019-03-18T14:56:29.279Z,35.70
2019-03-18T14:58:58.856Z,31.50
2019-03-18T15:01:28.546Z,32.10
2019-03-18T15:03:59.814Z,31.30
2019-03-18T15:06:29.302Z,33.10
2019-03-18T15:08:59.028Z,30.70
2019-03-18T15:11:28.647Z,31.90
2019-03-18T15:14:01.523Z,34.00
2019-03-18T15:16:30.999Z,36.10
2019-03-18T15:19:00.697Z,38.00
2019-03-18T15:21:30.234Z,38.40
2019-03-18T15:23:59.847Z,37.50
2019-03-18T15:26:28.286Z,37.20
2019-03-18T15:28:57.853Z,38.70
2019-03-18T15:31:27.756Z,39.60
2019-03-18T15:33:57.562Z,40.70
2019-03-18T15:36:27.326Z,40.00
2019-03-18T15:38:57.374Z,38.20
2019-03-18T15:41:28.880Z,38.70
2019-03-18T15:43:58.765Z,41.00
2019-03-18T15:46:28.357Z,39.70
2019-03-18T15:48:58.012Z,41.20
2019-03-18T15:51:27.932Z,41.00
2019-03-18T15:53:59.892Z,41.50
2019-03-18T15:56:29.593Z,42.60
2019-03-18T15:59:00.927Z,41.10
2019-03-18T16:01:34.390Z,41.40
2019-03-18T16:04:04.068Z,42.70
2019-03-18T16:06:33.752Z,42.30
2019-03-18T16:09:04.748Z,41.70
2019-03-18T16:11:36.562Z,43.00
2019-03-18T16:14:06.234Z,43.60
2019-03-18T16:16:40.609Z,45.20
2019-03-18T16:19:11.237Z,45.30
2019-03-18T16:21:40.834Z,45.30
2019-03-18T16:24:10.477Z,45.60
2019-03-18T16:26:40.057Z,46.10
2019-03-18T16:29:09.764Z,45.60
2019-03-18T16:31:39.628Z,45.50
2019-03-18T16:34:09.350Z,46.20
2019-03-18T16:36:42.247Z,44.50
2019-03-18T16:39:15.087Z,45.30
2019-03-18T16:41:46.010Z,46.00
2019-03-18T16:44:15.850Z,47.40
2019-03-18T16:46:45.390Z,45.60
2019-03-18T16:49:15.490Z,46.20
2019-03-18T16:51:45.575Z,47.50
2019-03-18T16:54:17.535Z,48.00
2019-03-18T16:56:47.233Z,47.80
2019-03-18T16:59:33.297Z,48.40
2019-03-18T17:02:06.663Z,48.30
2019-03-18T17:04:36.278Z,48.80
2019-03-18T17:07:24.010Z,48.80
2019-03-18T17:09:53.803Z,48.80
2019-03-18T17:12:23.559Z,49.40
2019-03-18T17:14:55.951Z,49.60
2019-03-18T17:17:25.467Z,50.30
2019-03-18T17:19:54.981Z,50.50
2019-03-18T17:22:24.498Z,50.60
2019-03-18T17:24:55.465Z,51.20
2019-03-18T17:27:35.475Z,51.50
2019-03-18T17:30:06.436Z,51.60
2019-03-18T17:32:36.071Z,51.20
2019-03-18T17:35:06.272Z,51.70
2019-03-18T17:37:46.307Z,51.70
2019-03-18T17:40:16.011Z,51.90
2019-03-18T17:42:50.541Z,52.50
2019-03-18T17:47:49.693Z,53.40
2019-03-18T17:50:19.721Z,53.20
2019-03-18T17:53:01.598Z,53.60
2019-03-18T17:55:19.113Z,54.80
2019-03-18T17:57:50.056Z,55.20
2019-03-18T18:00:26.970Z,54.70
2019-03-18T18:03:07.369Z,55.50
2019-03-18T18:05:44.301Z,56.40
2019-03-18T18:08:18.022Z,55.90
2019-03-18T18:10:46.439Z,57.00
2019-03-18T18:13:16.071Z,55.10
2019-03-18T18:15:46.318Z,55.00
2019-03-18T18:18:16.468Z,54.50
2019-03-18T18:20:46.327Z,54.60
2019-03-18T18:23:16.921Z,54.50
2019-03-18T18:25:47.700Z,54.70
2019-03-18T18:28:21.182Z,55.00
2019-03-18T18:30:52.271Z,54.80
2019-03-18T18:33:21.839Z,55.30
2019-03-18T18:35:51.681Z,54.80
2019-03-18T18:38:41.328Z,55.50
2019-03-18T18:41:10.829Z,55.40
2019-03-18T18:43:40.698Z,54.20
2019-03-18T18:46:10.229Z,53.40
2019-03-18T18:48:39.689Z,52.80
2019-03-18T18:51:09.240Z,54.00
2019-03-18T18:53:39.083Z,54.00
2019-03-18T18:56:11.665Z,54.00
2019-03-18T18:58:41.118Z,53.90
2019-03-18T19:01:13.207Z,53.90
2019-03-18T19:03:41.714Z,53.30
2019-03-18T19:06:11.302Z,53.50
2019-03-18T19:08:40.761Z,53.20
2019-03-18T19:11:10.292Z,52.80
2019-03-18T19:13:39.993Z,53.00
2019-03-18T19:16:09.509Z,52.80
2019-03-18T19:18:40.509Z,52.40
2019-03-18T19:21:11.145Z,52.50
2019-03-18T19:23:41.893Z,52.30
2019-03-18T19:26:12.055Z,52.30
2019-03-18T19:28:41.526Z,52.40
2019-03-18T19:31:12.124Z,52.10
2019-03-18T19:33:44.993Z,51.50
2019-03-18T19:36:14.490Z,51.20
2019-03-18T19:38:45.501Z,51.50
2019-03-18T19:41:17.138Z,52.70
2019-03-18T19:43:46.883Z,52.30
2019-03-18T19:46:17.298Z,52.30
2019-03-18T19:48:48.596Z,52.10
2019-03-18T19:51:38.506Z,52.40
2019-03-18T19:54:09.361Z,52.20
2019-03-18T19:56:38.944Z,52.00
2019-03-18T19:59:08.564Z,52.20
2019-03-18T20:01:38.185Z,52.60
2019-03-18T20:04:07.734Z,52.60
2019-03-18T20:06:38.559Z,52.90
2019-03-18T20:09:08.882Z,52.30
2019-03-18T20:11:38.406Z,52.20
2019-03-18T20:14:08.112Z,52.50
2019-03-18T20:16:39.422Z,52.10
2019-03-18T20:19:09.151Z,52.40
2019-03-18T20:21:39.350Z,52.50
2019-03-18T20:24:09.130Z,52.80
2019-03-18T20:26:38.684Z,52.40
2019-03-18T20:29:08.242Z,52.40
2019-03-18T20:31:37.686Z,51.80
2019-03-18T20:34:07.251Z,51.80
2019-03-18T20:36:36.800Z,52.00
2019-03-18T20:39:08.080Z,52.30
2019-03-18T20:41:37.876Z,52.70
2019-03-18T20:44:07.608Z,52.60
2019-03-18T20:46:37.216Z,53.90
2019-03-18T20:49:06.822Z,53.40
2019-03-18T20:51:38.157Z,53.40
2019-03-18T20:54:12.109Z,53.40
2019-03-18T20:56:38.799Z,53.20
2019-03-18T20:59:08.266Z,53.10
2019-03-18T21:01:38.031Z,53.60
2019-03-18T21:04:08.799Z,54.50
2019-03-18T21:06:41.132Z,53.70
2019-03-18T21:09:10.553Z,53.20
2019-03-18T21:11:40.122Z,53.30
2019-03-18T21:14:09.831Z,53.30
2019-03-18T21:16:39.365Z,53.40
2019-03-18T21:19:08.840Z,53.30
2019-03-18T21:21:44.897Z,53.30
2019-03-18T21:24:22.702Z,53.40
2019-03-18T21:29:54.436Z,54.00
2019-03-18T21:32:23.879Z,54.10
2019-03-18T21:34:53.471Z,53.80
2019-03-18T21:37:23.177Z,54.30
2019-03-18T21:39:52.641Z,53.80
2019-03-18T21:42:22.195Z,53.70
2019-03-18T21:44:51.972Z,54.40
2019-03-18T21:47:21.502Z,54.60
2019-03-18T21:49:52.441Z,54.20
2019-03-18T21:52:21.954Z,54.10
2019-03-18T21:54:51.769Z,54.20
2019-03-18T21:57:21.327Z,53.90
2019-03-18T21:59:53.869Z,54.00
2019-03-18T22:02:24.877Z,53.70
2019-03-18T22:04:54.338Z,53.80
2019-03-18T22:07:24.782Z,54.60
2019-03-18T22:10:00.383Z,55.50
2019-03-18T22:12:50.548Z,55.30
2019-03-18T22:15:23.264Z,55.30
2019-03-18T22:17:52.841Z,55.30
2019-03-18T22:20:24.561Z,54.90
2019-03-18T22:22:55.818Z,55.50
2019-03-18T22:25:25.521Z,55.70
2019-03-18T22:27:56.312Z,55.40
2019-03-18T22:30:26.116Z,55.50
2019-03-18T22:32:58.058Z,54.90
2019-03-18T22:35:27.954Z,54.90
2019-03-18T22:38:00.358Z,55.80
2019-03-18T22:40:36.200Z,55.80
2019-03-18T22:43:05.859Z,56.10
2019-03-18T22:45:38.762Z,55.60
2019-03-18T22:48:10.385Z,55.70
2019-03-18T22:53:09.777Z,55.20
2019-03-18T22:55:39.423Z,55.20
2019-03-18T23:04:36.246Z,55.70
2019-03-18T23:07:15.977Z,55.30
2019-03-18T23:20:43.908Z,55.10
2019-03-18T23:26:38.873Z,55.90
2019-03-18T23:29:10.335Z,56.20
2019-03-18T23:31:55.665Z,56.00
2019-03-18T23:34:25.227Z,55.90
2019-03-18T23:36:54.716Z,56.70
2019-03-18T23:39:24.288Z,56.80
2019-03-18T23:41:58.067Z,57.00
2019-03-18T23:44:28.926Z,57.10
2019-03-18T23:46:58.888Z,56.90
2019-03-18T23:49:28.597Z,56.90
2019-03-18T23:52:00.748Z,57.00
2019-03-18T23:54:33.922Z,56.70
2019-03-18T23:57:03.937Z,56.90
2019-03-18T23:59:34.864Z,56.80
